sensor_id;sensor_type;location;lat;lon;timestamp;P1;durP1;ratioP1;P2;durP2;ratioP2
9821;SDS011;4950;46.042;14.472;2022-10-13T00:01:07;14.37;;;12.97;;
9821;SDS011;4950;46.042;14.472;2022-10-13T00:03:35;14.17;;;12.67;;
9821;SDS011;4950;46.042;14.472;2022-10-13T00:06:03;15.60;;;13.60;;
9821;SDS011;4950;46.042;14.472;2022-10-13T00:08:31;15.27;;;13.67;;
9821;SDS011;4950;46.042;14.472;2022-10-13T00:10:58;16.03;;;13.80;;
9821;SDS011;4950;46.042;14.472;2022-10-13T00:13:26;15.60;;;13.87;;
9821;SDS011;4950;46.042;14.472;2022-10-13T00:15:53;15.80;;;14.17;;
9821;SDS011;4950;46.042;14.472;2022-10-13T00:18:20;18.87;;;13.80;;
9821;SDS011;4950;46.042;14.472;2022-10-13T00:20:47;17.10;;;13.63;;
9821;SDS011;4950;46.042;14.472;2022-10-13T00:23:15;16.13;;;13.77;;
9821;SDS011;4950;46.042;14.472;2022-10-13T00:25:42;14.57;;;13.07;;
9821;SDS011;4950;46.042;14.472;2022-10-13T00:28:10;19.23;;;13.90;;
9821;SDS011;4950;46.042;14.472;2022-10-13T00:30:39;15.50;;;13.90;;
9821;SDS011;4950;46.042;14.472;2022-10-13T00:33:06;15.33;;;12.90;;
9821;SDS011;4950;46.042;14.472;2022-10-13T00:35:33;14.60;;;13.03;;
9821;SDS011;4950;46.042;14.472;2022-10-13T00:38:00;15.90;;;13.53;;
9821;SDS011;4950;46.042;14.472;2022-10-13T00:40:26;14.50;;;12.60;;
9821;SDS011;4950;46.042;14.472;2022-10-13T00:42:53;17.70;;;13.50;;
9821;SDS011;4950;46.042;14.472;2022-10-13T00:45:21;13.63;;;12.23;;
9821;SDS011;4950;46.042;14.472;2022-10-13T00:47:50;15.13;;;13.53;;
9821;SDS011;4950;46.042;14.472;2022-10-13T00:50:22;15.63;;;13.27;;
9821;SDS011;4950;46.042;14.472;2022-10-13T00:52:51;13.40;;;12.10;;
9821;SDS011;4950;46.042;14.472;2022-10-13T00:55:19;16.60;;;12.67;;
9821;SDS011;4950;46.042;14.472;2022-10-13T00:57:49;13.87;;;12.40;;
9821;SDS011;4950;46.042;14.472;2022-10-13T01:00:19;14.20;;;12.63;;
9821;SDS011;4950;46.042;14.472;2022-10-13T01:02:46;14.17;;;12.77;;
9821;SDS011;4950;46.042;14.472;2022-10-13T01:05:14;13.90;;;12.43;;
9821;SDS011;4950;46.042;14.472;2022-10-13T01:07:43;13.80;;;12.40;;
9821;SDS011;4950;46.042;14.472;2022-10-13T01:10:13;14.47;;;13.07;;
9821;SDS011;4950;46.042;14.472;2022-10-13T01:12:49;17.77;;;13.40;;
9821;SDS011;4950;46.042;14.472;2022-10-13T01:15:25;14.40;;;12.87;;
9821;SDS011;4950;46.042;14.472;2022-10-13T01:17:59;14.63;;;13.20;;
9821;SDS011;4950;46.042;14.472;2022-10-13T01:20:43;14.93;;;12.07;;
9821;SDS011;4950;46.042;14.472;2022-10-13T01:23:23;15.07;;;13.57;;
9821;SDS011;4950;46.042;14.472;2022-10-13T01:26:18;14.37;;;12.40;;
9821;SDS011;4950;46.042;14.472;2022-10-13T01:29:08;15.17;;;13.17;;
9821;SDS011;4950;46.042;14.472;2022-10-13T01:31:45;14.57;;;13.13;;
9821;SDS011;4950;46.042;14.472;2022-10-13T01:34:17;17.30;;;12.00;;
9821;SDS011;4950;46.042;14.472;2022-10-13T01:36:49;14.07;;;12.03;;
9821;SDS011;4950;46.042;14.472;2022-10-13T01:39:22;14.43;;;12.83;;
9821;SDS011;4950;46.042;14.472;2022-10-13T01:41:53;13.93;;;12.50;;
9821;SDS011;4950;46.042;14.472;2022-10-13T01:44:28;14.93;;;13.47;;
9821;SDS011;4950;46.042;14.472;2022-10-13T01:47:01;16.53;;;14.63;;
9821;SDS011;4950;46.042;14.472;2022-10-13T01:49:31;20.63;;;16.30;;
9821;SDS011;4950;46.042;14.472;2022-10-13T01:52:00;19.10;;;15.57;;
9821;SDS011;4950;46.042;14.472;2022-10-13T01:54:33;18.33;;;16.47;;
9821;SDS011;4950;46.042;14.472;2022-10-13T01:57:00;21.07;;;17.33;;
9821;SDS011;4950;46.042;14.472;2022-10-13T01:59:27;19.33;;;17.20;;
9821;SDS011;4950;46.042;14.472;2022-10-13T02:01:59;20.87;;;17.63;;
9821;SDS011;4950;46.042;14.472;2022-10-13T02:04:41;25.90;;;17.70;;
9821;SDS011;4950;46.042;14.472;2022-10-13T02:07:18;19.20;;;17.17;;
9821;SDS011;4950;46.042;14.472;2022-10-13T02:09:51;18.50;;;16.67;;
9821;SDS011;4950;46.042;14.472;2022-10-13T02:12:24;21.40;;;18.07;;
9821;SDS011;4950;46.042;14.472;2022-10-13T02:14:54;21.97;;;18.07;;
9821;SDS011;4950;46.042;14.472;2022-10-13T02:17:25;19.67;;;17.57;;
9821;SDS011;4950;46.042;14.472;2022-10-13T02:19:53;20.17;;;17.77;;
9821;SDS011;4950;46.042;14.472;2022-10-13T02:22:21;19.43;;;16.73;;
9821;SDS011;4950;46.042;14.472;2022-10-13T02:24:53;20.43;;;18.40;;
9821;SDS011;4950;46.042;14.472;2022-10-13T02:27:20;20.73;;;18.30;;
9821;SDS011;4950;46.042;14.472;2022-10-13T02:29:48;20.10;;;17.93;;
9821;SDS011;4950;46.042;14.472;2022-10-13T02:32:15;24.37;;;20.03;;
9821;SDS011;4950;46.042;14.472;2022-10-13T02:34:43;22.90;;;19.23;;
9821;SDS011;4950;46.042;14.472;2022-10-13T02:37:10;21.80;;;19.67;;
9821;SDS011;4950;46.042;14.472;2022-10-13T02:39:37;28.63;;;22.00;;
9821;SDS011;4950;46.042;14.472;2022-10-13T02:42:03;24.83;;;21.70;;
9821;SDS011;4950;46.042;14.472;2022-10-13T02:44:30;28.60;;;22.67;;
9821;SDS011;4950;46.042;14.472;2022-10-13T02:46:57;25.33;;;21.13;;
9821;SDS011;4950;46.042;14.472;2022-10-13T02:49:23;23.43;;;20.90;;
9821;SDS011;4950;46.042;14.472;2022-10-13T02:51:52;27.80;;;21.43;;
9821;SDS011;4950;46.042;14.472;2022-10-13T02:54:18;26.17;;;21.87;;
9821;SDS011;4950;46.042;14.472;2022-10-13T02:56:45;27.30;;;22.27;;
9821;SDS011;4950;46.042;14.472;2022-10-13T02:59:12;26.63;;;22.03;;
9821;SDS011;4950;46.042;14.472;2022-10-13T03:01:38;28.37;;;22.87;;
9821;SDS011;4950;46.042;14.472;2022-10-13T03:04:06;32.20;;;22.57;;
9821;SDS011;4950;46.042;14.472;2022-10-13T03:06:32;24.93;;;22.37;;
9821;SDS011;4950;46.042;14.472;2022-10-13T03:09:01;22.90;;;20.60;;
9821;SDS011;4950;46.042;14.472;2022-10-13T03:11:28;23.87;;;20.77;;
9821;SDS011;4950;46.042;14.472;2022-10-13T03:13:55;24.27;;;21.73;;
9821;SDS011;4950;46.042;14.472;2022-10-13T03:16:21;25.60;;;22.90;;
9821;SDS011;4950;46.042;14.472;2022-10-13T03:18:48;26.70;;;22.43;;
9821;SDS011;4950;46.042;14.472;2022-10-13T03:21:14;25.27;;;22.57;;
9821;SDS011;4950;46.042;14.472;2022-10-13T03:23:41;24.77;;;22.10;;
9821;SDS011;4950;46.042;14.472;2022-10-13T03:26:09;27.40;;;23.60;;
9821;SDS011;4950;46.042;14.472;2022-10-13T03:28:35;31.63;;;24.30;;
9821;SDS011;4950;46.042;14.472;2022-10-13T03:31:02;31.93;;;23.30;;
9821;SDS011;4950;46.042;14.472;2022-10-13T03:33:31;27.53;;;23.70;;
9821;SDS011;4950;46.042;14.472;2022-10-13T03:35:58;32.30;;;25.03;;
9821;SDS011;4950;46.042;14.472;2022-10-13T03:38:25;28.03;;;24.33;;
9821;SDS011;4950;46.042;14.472;2022-10-13T03:40:53;29.17;;;25.13;;
9821;SDS011;4950;46.042;14.472;2022-10-13T03:43:21;28.93;;;25.17;;
9821;SDS011;4950;46.042;14.472;2022-10-13T03:45:53;28.70;;;25.60;;
9821;SDS011;4950;46.042;14.472;2022-10-13T03:48:20;26.90;;;24.13;;
9821;SDS011;4950;46.042;14.472;2022-10-13T03:50:47;26.93;;;24.03;;
9821;SDS011;4950;46.042;14.472;2022-10-13T03:53:13;28.23;;;25.33;;
9821;SDS011;4950;46.042;14.472;2022-10-13T03:55:40;22.90;;;20.50;;
9821;SDS011;4950;46.042;14.472;2022-10-13T03:58:07;21.00;;;16.63;;
9821;SDS011;4950;46.042;14.472;2022-10-13T04:00:35;17.77;;;15.57;;
9821;SDS011;4950;46.042;14.472;2022-10-13T04:03:01;17.93;;;15.90;;
9821;SDS011;4950;46.042;14.472;2022-10-13T04:05:28;24.93;;;17.07;;
9821;SDS011;4950;46.042;14.472;2022-10-13T04:07:55;24.30;;;17.13;;
9821;SDS011;4950;46.042;14.472;2022-10-13T04:10:21;18.70;;;16.90;;
9821;SDS011;4950;46.042;14.472;2022-10-13T04:12:48;24.10;;;17.77;;
9821;SDS011;4950;46.042;14.472;2022-10-13T04:15:15;20.30;;;18.17;;
9821;SDS011;4950;46.042;14.472;2022-10-13T04:17:42;19.30;;;17.33;;
9821;SDS011;4950;46.042;14.472;2022-10-13T04:20:09;21.53;;;18.47;;
9821;SDS011;4950;46.042;14.472;2022-10-13T04:22:36;20.47;;;18.27;;
9821;SDS011;4950;46.042;14.472;2022-10-13T04:25:03;19.53;;;17.47;;
9821;SDS011;4950;46.042;14.472;2022-10-13T04:27:31;21.60;;;18.47;;
9821;SDS011;4950;46.042;14.472;2022-10-13T04:29:58;28.40;;;18.87;;
9821;SDS011;4950;46.042;14.472;2022-10-13T04:32:25;22.67;;;18.20;;
9821;SDS011;4950;46.042;14.472;2022-10-13T04:34:53;20.90;;;18.70;;
9821;SDS011;4950;46.042;14.472;2022-10-13T04:37:19;26.53;;;19.37;;
9821;SDS011;4950;46.042;14.472;2022-10-13T04:39:46;25.83;;;21.00;;
9821;SDS011;4950;46.042;14.472;2022-10-13T04:42:13;21.83;;;19.57;;
9821;SDS011;4950;46.042;14.472;2022-10-13T04:44:39;28.47;;;22.73;;
9821;SDS011;4950;46.042;14.472;2022-10-13T04:47:06;26.17;;;23.60;;
9821;SDS011;4950;46.042;14.472;2022-10-13T04:49:33;23.00;;;20.80;;
9821;SDS011;4950;46.042;14.472;2022-10-13T04:52:01;25.63;;;23.07;;
9821;SDS011;4950;46.042;14.472;2022-10-13T04:54:27;24.40;;;22.10;;
9821;SDS011;4950;46.042;14.472;2022-10-13T04:56:54;23.17;;;20.70;;
9821;SDS011;4950;46.042;14.472;2022-10-13T04:59:20;25.33;;;23.00;;
9821;SDS011;4950;46.042;14.472;2022-10-13T05:01:47;26.23;;;23.57;;
9821;SDS011;4950;46.042;14.472;2022-10-13T05:04:13;26.47;;;23.77;;
9821;SDS011;4950;46.042;14.472;2022-10-13T05:06:41;25.67;;;23.17;;
9821;SDS011;4950;46.042;14.472;2022-10-13T05:09:10;32.23;;;23.20;;
9821;SDS011;4950;46.042;14.472;2022-10-13T05:11:40;28.47;;;25.47;;
9821;SDS011;4950;46.042;14.472;2022-10-13T05:14:07;36.73;;;32.73;;
9821;SDS011;4950;46.042;14.472;2022-10-13T05:16:34;31.40;;;28.17;;
9821;SDS011;4950;46.042;14.472;2022-10-13T05:19:00;27.87;;;25.00;;
9821;SDS011;4950;46.042;14.472;2022-10-13T05:21:27;29.10;;;26.20;;
9821;SDS011;4950;46.042;14.472;2022-10-13T05:23:54;33.73;;;30.17;;
9821;SDS011;4950;46.042;14.472;2022-10-13T05:26:24;29.00;;;26.13;;
9821;SDS011;4950;46.042;14.472;2022-10-13T05:28:53;25.23;;;22.73;;
9821;SDS011;4950;46.042;14.472;2022-10-13T05:31:20;25.90;;;23.23;;
9821;SDS011;4950;46.042;14.472;2022-10-13T05:33:48;25.33;;;22.83;;
9821;SDS011;4950;46.042;14.472;2022-10-13T05:36:17;27.60;;;23.63;;
9821;SDS011;4950;46.042;14.472;2022-10-13T05:38:48;27.23;;;24.33;;
9821;SDS011;4950;46.042;14.472;2022-10-13T05:41:15;25.23;;;22.57;;
9821;SDS011;4950;46.042;14.472;2022-10-13T05:43:43;26.27;;;23.77;;
9821;SDS011;4950;46.042;14.472;2022-10-13T05:46:10;25.60;;;22.90;;
9821;SDS011;4950;46.042;14.472;2022-10-13T05:48:37;25.33;;;22.93;;
9821;SDS011;4950;46.042;14.472;2022-10-13T05:51:04;24.90;;;22.37;;
9821;SDS011;4950;46.042;14.472;2022-10-13T05:53:35;21.00;;;19.00;;
9821;SDS011;4950;46.042;14.472;2022-10-13T05:56:05;21.57;;;19.57;;
9821;SDS011;4950;46.042;14.472;2022-10-13T05:58:36;23.20;;;21.03;;
9821;SDS011;4950;46.042;14.472;2022-10-13T06:01:07;23.33;;;21.00;;
9821;SDS011;4950;46.042;14.472;2022-10-13T06:03:37;23.67;;;21.47;;
9821;SDS011;4950;46.042;14.472;2022-10-13T06:06:06;23.47;;;21.30;;
9821;SDS011;4950;46.042;14.472;2022-10-13T06:08:34;26.30;;;22.97;;
9821;SDS011;4950;46.042;14.472;2022-10-13T06:11:01;25.23;;;22.73;;
9821;SDS011;4950;46.042;14.472;2022-10-13T06:13:28;24.93;;;22.53;;
9821;SDS011;4950;46.042;14.472;2022-10-13T06:15:54;26.33;;;23.63;;
9821;SDS011;4950;46.042;14.472;2022-10-13T06:18:22;25.70;;;23.10;;
9821;SDS011;4950;46.042;14.472;2022-10-13T06:20:49;25.37;;;22.73;;
9821;SDS011;4950;46.042;14.472;2022-10-13T06:23:16;25.40;;;22.57;;
9821;SDS011;4950;46.042;14.472;2022-10-13T06:25:46;26.33;;;23.50;;
9821;SDS011;4950;46.042;14.472;2022-10-13T06:28:13;23.60;;;21.40;;
9821;SDS011;4950;46.042;14.472;2022-10-13T06:30:40;25.43;;;23.03;;
9821;SDS011;4950;46.042;14.472;2022-10-13T06:33:07;26.17;;;23.47;;
9821;SDS011;4950;46.042;14.472;2022-10-13T06:35:35;26.60;;;23.90;;
9821;SDS011;4950;46.042;14.472;2022-10-13T06:38:01;27.17;;;24.47;;
9821;SDS011;4950;46.042;14.472;2022-10-13T06:40:28;25.50;;;22.50;;
9821;SDS011;4950;46.042;14.472;2022-10-13T06:42:55;26.47;;;23.80;;
9821;SDS011;4950;46.042;14.472;2022-10-13T06:45:22;30.77;;;23.37;;
9821;SDS011;4950;46.042;14.472;2022-10-13T06:47:51;25.50;;;22.83;;
9821;SDS011;4950;46.042;14.472;2022-10-13T06:50:17;24.80;;;22.03;;
9821;SDS011;4950;46.042;14.472;2022-10-13T06:52:48;26.17;;;22.17;;
9821;SDS011;4950;46.042;14.472;2022-10-13T06:55:15;23.23;;;21.00;;
9821;SDS011;4950;46.042;14.472;2022-10-13T06:57:42;23.90;;;21.53;;
9821;SDS011;4950;46.042;14.472;2022-10-13T07:00:09;23.47;;;20.97;;
9821;SDS011;4950;46.042;14.472;2022-10-13T07:02:36;24.03;;;21.53;;
9821;SDS011;4950;46.042;14.472;2022-10-13T07:05:03;22.83;;;20.43;;
9821;SDS011;4950;46.042;14.472;2022-10-13T07:07:30;22.70;;;20.30;;
9821;SDS011;4950;46.042;14.472;2022-10-13T07:09:58;23.20;;;20.80;;
9821;SDS011;4950;46.042;14.472;2022-10-13T07:12:24;23.03;;;20.83;;
9821;SDS011;4950;46.042;14.472;2022-10-13T07:14:51;23.40;;;21.07;;
9821;SDS011;4950;46.042;14.472;2022-10-13T07:17:18;23.27;;;20.97;;
9821;SDS011;4950;46.042;14.472;2022-10-13T07:19:44;21.50;;;19.30;;
9821;SDS011;4950;46.042;14.472;2022-10-13T07:22:12;22.80;;;20.63;;
9821;SDS011;4950;46.042;14.472;2022-10-13T07:24:39;23.70;;;21.20;;
9821;SDS011;4950;46.042;14.472;2022-10-13T07:27:07;21.83;;;19.67;;
9821;SDS011;4950;46.042;14.472;2022-10-13T07:29:34;22.40;;;20.20;;
9821;SDS011;4950;46.042;14.472;2022-10-13T07:32:01;23.63;;;21.13;;
9821;SDS011;4950;46.042;14.472;2022-10-13T07:34:27;24.50;;;22.10;;
9821;SDS011;4950;46.042;14.472;2022-10-13T07:36:54;24.53;;;22.00;;
9821;SDS011;4950;46.042;14.472;2022-10-13T07:39:20;23.70;;;21.20;;
9821;SDS011;4950;46.042;14.472;2022-10-13T07:41:47;24.07;;;21.70;;
9821;SDS011;4950;46.042;14.472;2022-10-13T07:44:15;24.97;;;22.47;;
9821;SDS011;4950;46.042;14.472;2022-10-13T07:46:42;25.23;;;22.83;;
9821;SDS011;4950;46.042;14.472;2022-10-13T07:49:08;26.07;;;23.27;;
9821;SDS011;4950;46.042;14.472;2022-10-13T07:51:35;25.00;;;22.50;;
9821;SDS011;4950;46.042;14.472;2022-10-13T07:54:02;25.43;;;22.93;;
9821;SDS011;4950;46.042;14.472;2022-10-13T07:56:29;25.87;;;22.80;;
9821;SDS011;4950;46.042;14.472;2022-10-13T07:58:55;27.13;;;24.33;;
9821;SDS011;4950;46.042;14.472;2022-10-13T08:01:23;28.40;;;25.50;;
9821;SDS011;4950;46.042;14.472;2022-10-13T08:03:53;27.27;;;24.47;;
9821;SDS011;4950;46.042;14.472;2022-10-13T08:06:20;27.77;;;25.07;;
9821;SDS011;4950;46.042;14.472;2022-10-13T08:08:46;26.27;;;23.47;;
9821;SDS011;4950;46.042;14.472;2022-10-13T08:11:13;25.67;;;23.07;;
9821;SDS011;4950;46.042;14.472;2022-10-13T08:13:41;25.63;;;23.07;;
9821;SDS011;4950;46.042;14.472;2022-10-13T08:16:08;25.97;;;23.37;;
9821;SDS011;4950;46.042;14.472;2022-10-13T08:18:36;25.63;;;22.93;;
9821;SDS011;4950;46.042;14.472;2022-10-13T08:21:03;24.37;;;21.87;;
9821;SDS011;4950;46.042;14.472;2022-10-13T08:23:30;24.83;;;22.40;;
9821;SDS011;4950;46.042;14.472;2022-10-13T08:25:57;23.67;;;21.27;;
9821;SDS011;4950;46.042;14.472;2022-10-13T08:28:24;23.37;;;20.93;;
9821;SDS011;4950;46.042;14.472;2022-10-13T08:30:53;24.13;;;21.63;;
9821;SDS011;4950;46.042;14.472;2022-10-13T08:33:21;25.17;;;22.33;;
9821;SDS011;4950;46.042;14.472;2022-10-13T08:35:50;23.97;;;21.60;;
9821;SDS011;4950;46.042;14.472;2022-10-13T08:38:17;22.50;;;20.30;;
9821;SDS011;4950;46.042;14.472;2022-10-13T08:40:45;22.60;;;20.30;;
9821;SDS011;4950;46.042;14.472;2022-10-13T08:43:13;23.10;;;20.73;;
9821;SDS011;4950;46.042;14.472;2022-10-13T08:45:42;22.47;;;20.17;;
9821;SDS011;4950;46.042;14.472;2022-10-13T08:48:09;23.77;;;21.37;;
9821;SDS011;4950;46.042;14.472;2022-10-13T08:50:40;21.70;;;19.27;;
9821;SDS011;4950;46.042;14.472;2022-10-13T08:53:11;23.23;;;20.50;;
9821;SDS011;4950;46.042;14.472;2022-10-13T08:55:42;23.87;;;21.53;;
9821;SDS011;4950;46.042;14.472;2022-10-13T08:58:11;23.00;;;20.60;;
9821;SDS011;4950;46.042;14.472;2022-10-13T09:00:40;20.57;;;18.57;;
9821;SDS011;4950;46.042;14.472;2022-10-13T09:03:14;22.43;;;20.07;;
9821;SDS011;4950;46.042;14.472;2022-10-13T09:05:50;22.87;;;20.57;;
9821;SDS011;4950;46.042;14.472;2022-10-13T09:08:25;23.60;;;20.60;;
9821;SDS011;4950;46.042;14.472;2022-10-13T09:10:56;25.50;;;22.60;;
9821;SDS011;4950;46.042;14.472;2022-10-13T09:13:23;23.63;;;21.13;;
9821;SDS011;4950;46.042;14.472;2022-10-13T09:15:51;25.13;;;22.43;;
9821;SDS011;4950;46.042;14.472;2022-10-13T09:18:18;23.33;;;20.93;;
9821;SDS011;4950;46.042;14.472;2022-10-13T09:20:57;23.87;;;21.40;;
9821;SDS011;4950;46.042;14.472;2022-10-13T09:23:36;26.53;;;23.63;;
9821;SDS011;4950;46.042;14.472;2022-10-13T09:26:05;26.87;;;24.10;;
9821;SDS011;4950;46.042;14.472;2022-10-13T09:28:33;25.83;;;22.67;;
9821;SDS011;4950;46.042;14.472;2022-10-13T09:31:01;26.17;;;23.20;;
9821;SDS011;4950;46.042;14.472;2022-10-13T09:33:33;25.30;;;21.47;;
9821;SDS011;4950;46.042;14.472;2022-10-13T09:36:05;24.63;;;21.17;;
9821;SDS011;4950;46.042;14.472;2022-10-13T09:38:36;23.83;;;21.40;;
9821;SDS011;4950;46.042;14.472;2022-10-13T09:41:05;24.67;;;22.20;;
9821;SDS011;4950;46.042;14.472;2022-10-13T09:43:41;23.90;;;21.47;;
9821;SDS011;4950;46.042;14.472;2022-10-13T09:46:12;24.57;;;21.97;;
9821;SDS011;4950;46.042;14.472;2022-10-13T09:48:47;25.30;;;22.70;;
9821;SDS011;4950;46.042;14.472;2022-10-13T09:51:31;28.83;;;22.47;;
9821;SDS011;4950;46.042;14.472;2022-10-13T09:54:01;26.00;;;23.20;;
9821;SDS011;4950;46.042;14.472;2022-10-13T09:56:29;22.53;;;20.33;;
9821;SDS011;4950;46.042;14.472;2022-10-13T09:59:04;22.83;;;20.43;;
9821;SDS011;4950;46.042;14.472;2022-10-13T10:01:38;22.17;;;20.07;;
9821;SDS011;4950;46.042;14.472;2022-10-13T10:04:09;24.30;;;21.70;;
9821;SDS011;4950;46.042;14.472;2022-10-13T10:06:39;25.43;;;22.77;;
9821;SDS011;4950;46.042;14.472;2022-10-13T10:09:18;24.83;;;22.40;;
9821;SDS011;4950;46.042;14.472;2022-10-13T10:11:57;23.97;;;21.37;;
9821;SDS011;4950;46.042;14.472;2022-10-13T10:14:25;25.53;;;22.67;;
9821;SDS011;4950;46.042;14.472;2022-10-13T10:16:55;28.03;;;25.03;;
9821;SDS011;4950;46.042;14.472;2022-10-13T10:19:31;24.30;;;21.63;;
9821;SDS011;4950;46.042;14.472;2022-10-13T10:22:11;28.17;;;23.93;;
9821;SDS011;4950;46.042;14.472;2022-10-13T10:24:47;25.53;;;22.93;;
9821;SDS011;4950;46.042;14.472;2022-10-13T10:27:20;30.90;;;26.40;;
9821;SDS011;4950;46.042;14.472;2022-10-13T10:29:53;27.93;;;25.20;;
9821;SDS011;4950;46.042;14.472;2022-10-13T10:32:31;26.77;;;24.02;;
9821;SDS011;4950;46.042;14.472;2022-10-13T10:35:10;27.13;;;24.37;;
9821;SDS011;4950;46.042;14.472;2022-10-13T10:37:47;27.90;;;24.95;;
9821;SDS011;4950;46.042;14.472;2022-10-13T10:40:27;29.85;;;26.10;;
9821;SDS011;4950;46.042;14.472;2022-10-13T10:46:00;33.28;;;27.85;;
9821;SDS011;4950;46.042;14.472;2022-10-13T10:48:28;29.58;;;26.40;;
9821;SDS011;4950;46.042;14.472;2022-10-13T10:50:58;28.08;;;25.27;;
9821;SDS011;4950;46.042;14.472;2022-10-13T10:53:28;28.88;;;25.85;;
9821;SDS011;4950;46.042;14.472;2022-10-13T10:56:04;29.02;;;25.48;;
9821;SDS011;4950;46.042;14.472;2022-10-13T10:58:40;33.80;;;28.10;;
9821;SDS011;4950;46.042;14.472;2022-10-13T11:01:18;29.30;;;24.58;;
9821;SDS011;4950;46.042;14.472;2022-10-13T11:03:54;30.92;;;27.70;;
9821;SDS011;4950;46.042;14.472;2022-10-13T11:06:31;31.58;;;28.17;;
9821;SDS011;4950;46.042;14.472;2022-10-13T11:09:00;34.85;;;29.25;;
9821;SDS011;4950;46.042;14.472;2022-10-13T11:11:31;29.63;;;26.52;;
9821;SDS011;4950;46.042;14.472;2022-10-13T11:14:15;32.53;;;28.30;;
9821;SDS011;4950;46.042;14.472;2022-10-13T11:19:44;28.85;;;25.85;;
9821;SDS011;4950;46.042;14.472;2022-10-13T11:22:14;31.10;;;26.83;;
9821;SDS011;4950;46.042;14.472;2022-10-13T11:24:46;29.02;;;25.45;;
9821;SDS011;4950;46.042;14.472;2022-10-13T11:27:21;30.58;;;27.35;;
9821;SDS011;4950;46.042;14.472;2022-10-13T11:29:51;28.95;;;26.02;;
9821;SDS011;4950;46.042;14.472;2022-10-13T11:35:20;28.42;;;23.80;;
9821;SDS011;4950;46.042;14.472;2022-10-13T11:37:51;26.40;;;23.60;;
9821;SDS011;4950;46.042;14.472;2022-10-13T11:40:29;29.00;;;25.42;;
9821;SDS011;4950;46.042;14.472;2022-10-13T11:43:19;29.58;;;26.63;;
9821;SDS011;4950;46.042;14.472;2022-10-13T11:48:51;31.27;;;27.98;;
9821;SDS011;4950;46.042;14.472;2022-10-13T11:51:39;28.25;;;25.27;;
9821;SDS011;4950;46.042;14.472;2022-10-13T11:54:18;29.67;;;24.45;;
9821;SDS011;4950;46.042;14.472;2022-10-13T11:56:55;26.75;;;23.42;;
9821;SDS011;4950;46.042;14.472;2022-10-13T11:59:25;26.40;;;23.75;;
9821;SDS011;4950;46.042;14.472;2022-10-13T12:01:54;26.98;;;24.17;;
9821;SDS011;4950;46.042;14.472;2022-10-13T12:04:22;28.33;;;22.70;;
9821;SDS011;4950;46.042;14.472;2022-10-13T12:06:54;28.92;;;24.50;;
9821;SDS011;4950;46.042;14.472;2022-10-13T12:09:26;25.92;;;23.05;;
9821;SDS011;4950;46.042;14.472;2022-10-13T12:11:56;30.33;;;26.90;;
9821;SDS011;4950;46.042;14.472;2022-10-13T12:14:28;27.55;;;24.65;;
9821;SDS011;4950;46.042;14.472;2022-10-13T12:16:57;27.77;;;24.60;;
9821;SDS011;4950;46.042;14.472;2022-10-13T12:19:26;27.08;;;23.80;;
9821;SDS011;4950;46.042;14.472;2022-10-13T12:21:55;25.88;;;23.38;;
9821;SDS011;4950;46.042;14.472;2022-10-13T12:24:23;26.70;;;23.83;;
9821;SDS011;4950;46.042;14.472;2022-10-13T12:26:51;28.88;;;25.88;;
9821;SDS011;4950;46.042;14.472;2022-10-13T12:29:19;28.67;;;25.58;;
9821;SDS011;4950;46.042;14.472;2022-10-13T12:31:51;27.17;;;24.45;;
9821;SDS011;4950;46.042;14.472;2022-10-13T12:34:20;29.23;;;24.80;;
9821;SDS011;4950;46.042;14.472;2022-10-13T12:36:54;27.52;;;24.67;;
9821;SDS011;4950;46.042;14.472;2022-10-13T12:39:23;25.20;;;22.33;;
9821;SDS011;4950;46.042;14.472;2022-10-13T12:41:50;26.15;;;23.42;;
9821;SDS011;4950;46.042;14.472;2022-10-13T12:44:19;25.40;;;23.10;;
9821;SDS011;4950;46.042;14.472;2022-10-13T12:46:49;25.75;;;23.35;;
9821;SDS011;4950;46.042;14.472;2022-10-13T12:49:21;22.35;;;20.17;;
9821;SDS011;4950;46.042;14.472;2022-10-13T12:51:49;21.88;;;19.88;;
9821;SDS011;4950;46.042;14.472;2022-10-13T12:54:24;24.50;;;21.90;;
9821;SDS011;4950;46.042;14.472;2022-10-13T12:56:55;24.40;;;21.88;;
9821;SDS011;4950;46.042;14.472;2022-10-13T12:59:24;23.42;;;21.17;;
9821;SDS011;4950;46.042;14.472;2022-10-13T13:01:54;22.30;;;20.20;;
9821;SDS011;4950;46.042;14.472;2022-10-13T13:07:21;22.58;;;20.27;;
9821;SDS011;4950;46.042;14.472;2022-10-13T13:12:49;21.85;;;19.80;;
9821;SDS011;4950;46.042;14.472;2022-10-13T13:15:29;21.73;;;19.73;;
9821;SDS011;4950;46.042;14.472;2022-10-13T13:21:00;21.55;;;19.75;;
9821;SDS011;4950;46.042;14.472;2022-10-13T13:23:29;22.05;;;20.00;;
9821;SDS011;4950;46.042;14.472;2022-10-13T13:25:58;21.05;;;18.88;;
9821;SDS011;4950;46.042;14.472;2022-10-13T13:28:27;20.40;;;18.35;;
9821;SDS011;4950;46.042;14.472;2022-10-13T13:30:54;21.02;;;19.08;;
9821;SDS011;4950;46.042;14.472;2022-10-13T13:33:21;21.88;;;19.77;;
9821;SDS011;4950;46.042;14.472;2022-10-13T13:35:49;22.08;;;19.80;;
9821;SDS011;4950;46.042;14.472;2022-10-13T13:38:16;23.42;;;19.58;;
9821;SDS011;4950;46.042;14.472;2022-10-13T13:40:43;22.48;;;20.17;;
9821;SDS011;4950;46.042;14.472;2022-10-13T13:43:10;22.23;;;20.00;;
9821;SDS011;4950;46.042;14.472;2022-10-13T13:45:36;21.65;;;19.65;;
9821;SDS011;4950;46.042;14.472;2022-10-13T13:48:03;21.20;;;19.30;;
9821;SDS011;4950;46.042;14.472;2022-10-13T13:50:31;22.65;;;20.45;;
9821;SDS011;4950;46.042;14.472;2022-10-13T13:53:01;20.73;;;18.73;;
9821;SDS011;4950;46.042;14.472;2022-10-13T13:55:29;24.10;;;19.58;;
9821;SDS011;4950;46.042;14.472;2022-10-13T13:57:55;22.60;;;20.65;;
9821;SDS011;4950;46.042;14.472;2022-10-13T14:00:22;22.98;;;20.70;;
9821;SDS011;4950;46.042;14.472;2022-10-13T14:02:49;22.52;;;20.38;;
9821;SDS011;4950;46.042;14.472;2022-10-13T14:05:16;22.17;;;19.52;;
9821;SDS011;4950;46.042;14.472;2022-10-13T14:07:42;21.55;;;19.55;;
9821;SDS011;4950;46.042;14.472;2022-10-13T14:10:10;21.52;;;19.38;;
9821;SDS011;4950;46.042;14.472;2022-10-13T14:12:37;20.55;;;18.55;;
9821;SDS011;4950;46.042;14.472;2022-10-13T14:15:04;21.35;;;19.45;;
9821;SDS011;4950;46.042;14.472;2022-10-13T14:17:31;21.90;;;19.65;;
9821;SDS011;4950;46.042;14.472;2022-10-13T14:19:58;21.02;;;19.08;;
9821;SDS011;4950;46.042;14.472;2022-10-13T14:22:25;21.75;;;19.58;;
9821;SDS011;4950;46.042;14.472;2022-10-13T14:24:51;22.52;;;20.38;;
9821;SDS011;4950;46.042;14.472;2022-10-13T14:27:20;22.02;;;19.77;;
9821;SDS011;4950;46.042;14.472;2022-10-13T14:29:47;22.27;;;20.10;;
9821;SDS011;4950;46.042;14.472;2022-10-13T14:32:13;21.65;;;19.75;;
9821;SDS011;4950;46.042;14.472;2022-10-13T14:34:40;19.73;;;17.92;;
9821;SDS011;4950;46.042;14.472;2022-10-13T14:37:06;21.85;;;19.75;;
9821;SDS011;4950;46.042;14.472;2022-10-13T14:39:33;22.23;;;20.30;;
9821;SDS011;4950;46.042;14.472;2022-10-13T14:42:00;19.65;;;17.92;;
9821;SDS011;4950;46.042;14.472;2022-10-13T14:44:27;20.98;;;18.95;;
9821;SDS011;4950;46.042;14.472;2022-10-13T14:46:54;21.08;;;19.17;;
9821;SDS011;4950;46.042;14.472;2022-10-13T14:49:21;21.00;;;19.05;;
9821;SDS011;4950;46.042;14.472;2022-10-13T14:51:48;21.10;;;19.00;;
9821;SDS011;4950;46.042;14.472;2022-10-13T14:54:14;21.58;;;19.58;;
9821;SDS011;4950;46.042;14.472;2022-10-13T14:56:41;20.67;;;18.75;;
9821;SDS011;4950;46.042;14.472;2022-10-13T14:59:08;22.70;;;20.50;;
9821;SDS011;4950;46.042;14.472;2022-10-13T15:01:38;20.83;;;18.95;;
9821;SDS011;4950;46.042;14.472;2022-10-13T15:04:05;22.77;;;20.67;;
9821;SDS011;4950;46.042;14.472;2022-10-13T15:06:32;23.05;;;20.80;;